createdAt,value
2024-03-05T00:00:30.146Z,17.70
2024-03-05T00:03:01.934Z,14.90
2024-03-05T00:05:33.940Z,16.27
2024-03-05T00:08:06.453Z,16.03
2024-03-05T00:10:38.212Z,14.53
2024-03-05T00:13:10.235Z,14.50
2024-03-05T00:15:42.554Z,16.50
2024-03-05T00:18:14.300Z,16.30
2024-03-05T00:20:46.075Z,14.83
2024-03-05T00:23:17.891Z,16.13
2024-03-05T00:25:49.698Z,16.37
2024-03-05T00:28:21.504Z,18.50
2024-03-05T00:30:54.451Z,16.42
2024-03-05T00:33:26.413Z,15.47
2024-03-05T00:35:58.190Z,16.50
2024-03-05T00:38:33.694Z,20.70
2024-03-05T00:41:07.279Z,18.40
2024-03-05T00:43:39.089Z,17.63
2024-03-05T00:46:10.909Z,16.77
2024-03-05T00:48:42.623Z,18.10
2024-03-05T00:51:14.388Z,16.63
2024-03-05T00:53:46.198Z,14.03
2024-03-05T00:56:18.004Z,17.07
2024-03-05T00:58:49.766Z,16.27
2024-03-05T01:01:22.183Z,15.20
2024-03-05T01:03:54.022Z,15.73
2024-03-05T01:06:25.800Z,18.30
2024-03-05T01:08:57.560Z,16.47
2024-03-05T01:11:31.472Z,16.83
2024-03-05T01:14:03.249Z,16.50
2024-03-05T01:16:35.182Z,16.23
2024-03-05T01:19:07.949Z,16.60
2024-03-05T01:21:42.167Z,16.87
2024-03-05T01:24:13.913Z,16.60
2024-03-05T01:26:45.603Z,15.97
2024-03-05T01:29:18.550Z,13.77
2024-03-05T01:31:57.302Z,14.93
2024-03-05T01:34:30.039Z,16.30
2024-03-05T01:37:02.543Z,14.43
2024-03-05T01:39:34.251Z,16.45
2024-03-05T01:42:09.059Z,14.67
2024-03-05T01:44:40.826Z,13.63
2024-03-05T01:47:12.743Z,14.87
2024-03-05T01:49:44.801Z,18.67
2024-03-05T01:52:16.904Z,11.83
2024-03-05T01:54:50.569Z,13.70
2024-03-05T01:57:24.698Z,16.10
2024-03-05T01:59:56.846Z,16.43
2024-03-05T02:02:28.692Z,16.27
2024-03-05T02:05:00.726Z,14.50
2024-03-05T02:07:33.584Z,12.53
2024-03-05T02:10:08.755Z,15.73
2024-03-05T02:12:43.376Z,13.90
2024-03-05T02:15:15.517Z,12.93
2024-03-05T02:17:47.268Z,16.27
2024-03-05T02:20:19.001Z,17.03
2024-03-05T02:22:50.787Z,15.50
2024-03-05T02:25:22.658Z,14.40
2024-03-05T02:27:54.496Z,12.60
2024-03-05T02:30:26.296Z,13.47
2024-03-05T02:32:58.399Z,13.87
2024-03-05T02:35:30.131Z,15.87
2024-03-05T02:38:01.883Z,13.90
2024-03-05T02:40:33.746Z,14.47
2024-03-05T02:43:06.833Z,16.80
2024-03-05T02:45:38.522Z,14.60
2024-03-05T02:48:10.412Z,14.90
2024-03-05T02:50:42.201Z,15.80
2024-03-05T02:53:13.877Z,15.40
2024-03-05T02:55:45.771Z,16.40
2024-03-05T02:58:18.069Z,18.13
2024-03-05T03:00:50.966Z,16.47
2024-03-05T03:03:22.808Z,17.93
2024-03-05T03:05:54.524Z,19.33
2024-03-05T03:08:26.229Z,16.10
2024-03-05T03:10:58.300Z,19.27
2024-03-05T03:13:30.180Z,19.13
2024-03-05T03:16:01.935Z,18.43
2024-03-05T03:18:33.659Z,20.90
2024-03-05T03:21:05.948Z,19.57
2024-03-05T03:23:37.740Z,21.83
2024-03-05T03:26:10.533Z,21.33
2024-03-05T03:28:43.113Z,21.70
2024-03-05T03:31:14.959Z,19.60
2024-03-05T03:33:46.679Z,17.13
2024-03-05T03:36:24.727Z,18.40
2024-03-05T03:38:56.531Z,20.43
2024-03-05T03:41:28.261Z,19.50
2024-03-05T03:44:00.954Z,22.40
2024-03-05T03:46:32.701Z,17.17
2024-03-05T03:49:08.810Z,19.70
2024-03-05T03:51:40.480Z,19.07
2024-03-05T03:54:12.530Z,21.00
2024-03-05T03:56:44.263Z,17.67
2024-03-05T03:59:16.225Z,16.90
2024-03-05T04:01:51.497Z,17.30
2024-03-05T04:04:24.944Z,20.00
2024-03-05T04:06:56.923Z,21.77
2024-03-05T04:09:28.825Z,19.60
2024-03-05T04:12:00.689Z,19.37
2024-03-05T04:14:32.381Z,16.93
2024-03-05T04:17:05.973Z,19.33
2024-03-05T04:19:37.736Z,16.87
2024-03-05T04:22:09.542Z,17.80
2024-03-05T04:24:45.296Z,17.33
2024-03-05T04:27:19.682Z,16.60
2024-03-05T04:29:57.736Z,19.07
2024-03-05T04:32:29.811Z,17.53
2024-03-05T04:35:01.749Z,19.20
2024-03-05T04:37:33.629Z,19.27
2024-03-05T04:40:11.186Z,16.67
2024-03-05T04:42:42.969Z,20.43
2024-03-05T04:45:14.652Z,18.90
2024-03-05T04:47:46.494Z,18.03
2024-03-05T04:50:19.515Z,18.10
2024-03-05T04:52:53.770Z,22.50
2024-03-05T04:55:25.743Z,20.80
2024-03-05T04:57:57.507Z,20.40
2024-03-05T05:00:30.096Z,21.57
2024-03-05T05:03:01.788Z,16.00
2024-03-05T05:05:33.789Z,17.10
2024-03-05T05:08:06.004Z,20.30
2024-03-05T05:10:37.829Z,19.40
2024-03-05T05:13:10.353Z,20.30
2024-03-05T05:15:42.205Z,17.20
2024-03-05T05:18:15.326Z,17.47
2024-03-05T05:20:47.369Z,17.03
2024-03-05T05:23:19.065Z,18.60
2024-03-05T05:25:50.800Z,19.47
2024-03-05T05:28:23.520Z,17.70
2024-03-05T05:30:55.247Z,19.97
2024-03-05T05:33:27.043Z,19.40
2024-03-05T05:35:58.748Z,17.80
2024-03-05T05:38:30.855Z,18.80
2024-03-05T05:41:02.666Z,18.80
2024-03-05T05:43:34.669Z,17.83
2024-03-05T05:46:15.632Z,19.63
2024-03-05T05:48:50.282Z,17.57
2024-03-05T05:51:23.448Z,17.07
2024-03-05T05:53:56.009Z,19.07
2024-03-05T05:56:27.767Z,18.33
2024-03-05T05:58:59.628Z,21.53
2024-03-05T06:01:32.421Z,27.98
2024-03-05T06:04:07.355Z,23.70
2024-03-05T06:06:39.074Z,21.07
2024-03-05T06:09:10.950Z,18.07
2024-03-05T06:11:44.419Z,21.33
2024-03-05T06:14:16.552Z,22.90
2024-03-05T06:16:48.281Z,20.63
2024-03-05T06:19:20.022Z,19.03
2024-03-05T06:21:51.708Z,20.33
2024-03-05T06:24:23.847Z,22.57
2024-03-05T06:26:55.690Z,23.97
2024-03-05T06:29:27.385Z,21.90
2024-03-05T06:31:59.201Z,22.47
2024-03-05T06:34:31.857Z,21.27
2024-03-05T06:37:03.875Z,25.00
2024-03-05T06:39:42.858Z,21.80
2024-03-05T06:42:14.757Z,21.87
2024-03-05T06:44:51.666Z,18.27
2024-03-05T06:47:28.926Z,23.87
2024-03-05T06:50:02.618Z,20.00
2024-03-05T06:52:53.491Z,20.00
2024-03-05T06:55:43.876Z,22.53
2024-03-05T06:58:15.612Z,20.97
2024-03-05T07:00:47.774Z,22.60
2024-03-05T07:03:19.496Z,21.50
2024-03-05T07:05:51.333Z,23.33
2024-03-05T07:08:26.033Z,20.77
2024-03-05T07:10:59.443Z,25.20
2024-03-05T07:13:31.346Z,21.70
2024-03-05T07:16:04.749Z,21.33
2024-03-05T07:18:37.577Z,21.17
2024-03-05T07:21:09.586Z,22.30
2024-03-05T07:23:41.478Z,22.70
2024-03-05T07:26:14.181Z,22.53
2024-03-05T07:28:46.105Z,21.40
2024-03-05T07:31:20.119Z,20.13
2024-03-05T07:33:53.751Z,20.40
2024-03-05T07:36:25.940Z,20.93
2024-03-05T07:38:58.096Z,20.20
2024-03-05T07:41:34.484Z,19.53
2024-03-05T07:44:07.130Z,19.50
2024-03-05T07:46:38.950Z,21.40
2024-03-05T07:49:10.710Z,21.70
2024-03-05T07:51:45.388Z,18.67
2024-03-05T07:54:17.689Z,19.20
2024-03-05T07:56:49.334Z,16.53
2024-03-05T07:59:21.026Z,20.17
2024-03-05T08:01:52.990Z,17.97
2024-03-05T08:04:24.795Z,20.30
2024-03-05T08:06:58.575Z,18.83
2024-03-05T08:09:31.077Z,18.50
2024-03-05T08:12:04.100Z,18.10
2024-03-05T08:14:35.852Z,18.27
2024-03-05T08:17:09.723Z,18.77
2024-03-05T08:19:42.588Z,18.13
2024-03-05T08:22:14.347Z,20.23
2024-03-05T08:24:45.999Z,15.73
2024-03-05T08:27:17.896Z,17.53
2024-03-05T08:29:51.038Z,15.17
2024-03-05T08:32:23.458Z,16.70
2024-03-05T08:34:55.269Z,18.77
2024-03-05T08:37:27.006Z,17.43
2024-03-05T08:39:59.184Z,15.90
2024-03-05T08:42:30.846Z,13.97
2024-03-05T08:45:04.658Z,16.03
2024-03-05T08:47:36.909Z,14.97
2024-03-05T08:50:08.780Z,15.07
2024-03-05T08:52:41.863Z,12.97
2024-03-05T08:55:15.287Z,15.57
2024-03-05T08:57:47.044Z,11.70
2024-03-05T09:00:32.387Z,13.60
2024-03-05T09:03:15.588Z,14.37
2024-03-05T09:05:48.445Z,14.07
2024-03-05T09:08:20.307Z,10.37
2024-03-05T09:10:52.117Z,15.57
2024-03-05T09:13:23.964Z,12.77
2024-03-05T09:15:55.687Z,11.57
2024-03-05T09:18:27.375Z,12.40
2024-03-05T09:20:59.082Z,12.10
2024-03-05T09:23:36.425Z,9.83
2024-03-05T09:26:11.680Z,11.63
2024-03-05T09:28:43.506Z,11.30
2024-03-05T09:31:15.531Z,10.43
2024-03-05T09:33:47.204Z,8.17
2024-03-05T09:36:18.986Z,9.80
2024-03-05T09:38:50.708Z,7.47
2024-03-05T09:41:22.763Z,8.83
2024-03-05T09:43:57.773Z,8.47
2024-03-05T09:46:31.743Z,7.30
2024-03-05T09:49:11.043Z,6.97
2024-03-05T09:51:48.917Z,13.90
2024-03-05T09:54:20.671Z,11.03
2024-03-05T09:56:55.120Z,6.97
2024-03-05T09:59:26.882Z,7.77
2024-03-05T10:02:00.079Z,6.80
2024-03-05T10:04:35.263Z,7.05
2024-03-05T10:07:08.607Z,6.70
2024-03-05T10:09:40.411Z,5.97
2024-03-05T10:12:14.438Z,5.80
2024-03-05T10:14:46.346Z,7.90
2024-03-05T10:17:18.019Z,8.03
2024-03-05T10:19:49.853Z,6.75
2024-03-05T10:22:21.590Z,7.10
2024-03-05T10:24:53.441Z,9.30
2024-03-05T10:27:29.206Z,8.97
2024-03-05T10:30:00.951Z,7.00
2024-03-05T10:32:32.718Z,7.83
2024-03-05T10:35:05.749Z,8.07
2024-03-05T10:37:37.532Z,7.40
2024-03-05T10:40:10.604Z,8.02
2024-03-05T10:42:43.389Z,8.03
2024-03-05T10:45:16.589Z,7.13
2024-03-05T10:47:51.552Z,6.33
2024-03-05T10:50:26.144Z,7.87
2024-03-05T10:52:59.090Z,7.97
2024-03-05T10:55:35.280Z,7.60
2024-03-05T10:58:10.245Z,7.00
2024-03-05T11:00:43.500Z,7.20
2024-03-05T11:03:17.876Z,10.30
2024-03-05T11:05:51.620Z,9.03
2024-03-05T11:08:30.383Z,6.93
2024-03-05T11:11:10.997Z,7.67
2024-03-05T11:13:43.980Z,6.30
2024-03-05T11:16:16.372Z,5.13
2024-03-05T11:18:48.256Z,5.40
2024-03-05T11:21:23.497Z,4.80
2024-03-05T11:23:58.678Z,4.70
2024-03-05T11:26:30.719Z,6.17
2024-03-05T11:29:22.945Z,4.47
2024-03-05T11:31:54.721Z,6.53
2024-03-05T11:34:29.111Z,6.03
2024-03-05T11:37:10.517Z,5.20
2024-03-05T11:39:44.348Z,4.70
2024-03-05T11:42:20.572Z,5.80
2024-03-05T11:44:53.831Z,3.83
2024-03-05T11:47:25.796Z,4.47
2024-03-05T11:50:04.973Z,4.07
2024-03-05T11:52:37.538Z,3.67
2024-03-05T11:55:10.714Z,4.57
2024-03-05T11:57:44.686Z,4.27
2024-03-05T12:00:17.721Z,2.77
2024-03-05T12:02:56.188Z,2.40
2024-03-05T12:05:31.018Z,2.80
2024-03-05T12:08:11.993Z,2.70
2024-03-05T12:10:43.878Z,2.80
2024-03-05T12:13:19.873Z,2.40
2024-03-05T12:15:51.876Z,2.73
2024-03-05T12:18:25.726Z,2.20
2024-03-05T12:20:57.488Z,1.90
2024-03-05T12:23:41.250Z,1.50
2024-03-05T12:26:14.959Z,2.00
2024-03-05T12:28:46.804Z,1.63
2024-03-05T12:31:19.606Z,1.97
2024-03-05T12:33:51.332Z,1.87
2024-03-05T12:36:23.129Z,4.30
2024-03-05T12:38:58.131Z,2.33
2024-03-05T12:41:29.849Z,1.60
2024-03-05T12:44:02.090Z,2.43
2024-03-05T12:46:33.935Z,2.03
2024-03-05T12:49:08.845Z,2.23
2024-03-05T12:51:40.534Z,2.33
2024-03-05T12:54:13.247Z,2.20
2024-03-05T12:56:46.563Z,2.23
2024-03-05T12:59:20.256Z,2.03
2024-03-05T13:01:55.157Z,2.20
2024-03-05T13:04:27.566Z,2.57
2024-03-05T13:06:59.473Z,2.67
2024-03-05T13:09:31.206Z,2.40
2024-03-05T13:12:03.087Z,2.23
2024-03-05T13:14:35.080Z,2.20
2024-03-05T13:17:08.303Z,2.43
2024-03-05T13:19:40.171Z,2.77
2024-03-05T13:22:14.892Z,2.03
2024-03-05T13:24:46.875Z,2.20
2024-03-05T13:27:18.680Z,3.00
2024-03-05T13:29:55.956Z,2.00
2024-03-05T13:32:33.400Z,1.73
2024-03-05T13:35:08.078Z,2.77
2024-03-05T13:37:40.977Z,2.07
2024-03-05T13:40:14.095Z,2.37
2024-03-05T13:42:49.423Z,2.30
2024-03-05T13:45:21.204Z,2.37
2024-03-05T13:47:55.228Z,2.37
2024-03-05T13:50:28.637Z,2.40
2024-03-05T13:53:00.551Z,2.67
2024-03-05T13:55:32.381Z,3.00
2024-03-05T13:58:05.236Z,2.57
2024-03-05T14:00:39.061Z,2.70
2024-03-05T14:03:14.705Z,3.57
2024-03-05T14:05:48.061Z,2.90
2024-03-05T14:08:19.833Z,3.10
2024-03-05T14:10:51.630Z,2.43
2024-03-05T14:13:23.556Z,2.57
2024-03-05T14:15:55.511Z,2.10
2024-03-05T14:18:27.414Z,3.10
2024-03-05T14:20:59.167Z,3.08
2024-03-05T14:23:32.019Z,3.23
2024-03-05T14:26:05.565Z,3.00
2024-03-05T14:28:37.524Z,2.60
2024-03-05T14:31:09.231Z,2.37
2024-03-05T14:33:41.340Z,2.90
2024-03-05T14:36:15.160Z,2.90
2024-03-05T14:38:47.422Z,2.80
2024-03-05T14:41:19.245Z,2.30
2024-03-05T14:43:51.580Z,2.90
2024-03-05T14:46:25.872Z,3.07
2024-03-05T14:48:57.681Z,2.40
2024-03-05T14:51:29.943Z,3.20
2024-03-05T14:54:02.483Z,1.97
2024-03-05T14:56:37.912Z,1.95
2024-03-05T14:59:10.241Z,1.80
2024-03-05T15:01:42.079Z,1.90
2024-03-05T15:04:13.806Z,4.13
2024-03-05T15:06:45.898Z,3.60
2024-03-05T15:09:18.843Z,2.70
2024-03-05T15:11:50.768Z,2.77
2024-03-05T15:14:22.559Z,2.50
2024-03-05T15:16:54.298Z,2.23
2024-03-05T15:19:26.173Z,1.92
2024-03-05T15:22:00.922Z,2.73
2024-03-05T15:24:32.813Z,2.23
2024-03-05T15:27:06.207Z,4.10
2024-03-05T15:29:39.623Z,2.20
2024-03-05T15:32:11.455Z,2.40
2024-03-05T15:34:43.165Z,2.90
2024-03-05T15:37:15.048Z,2.80
2024-03-05T15:39:46.786Z,2.50
2024-03-05T15:42:18.601Z,2.93
2024-03-05T15:44:50.341Z,3.10
2024-03-05T15:47:22.192Z,2.50
2024-03-05T15:49:53.951Z,2.75
2024-03-05T15:52:25.875Z,2.83
2024-03-05T15:54:57.562Z,3.70
2024-03-05T15:57:42.750Z,2.27
2024-03-05T16:00:17.319Z,2.43
2024-03-05T16:02:49.406Z,2.23
2024-03-05T16:05:28.948Z,2.20
2024-03-05T16:08:08.846Z,2.40
2024-03-05T16:10:48.388Z,2.47
2024-03-05T16:13:21.437Z,1.90
2024-03-05T16:15:54.030Z,2.27
2024-03-05T16:18:25.865Z,2.13
2024-03-05T16:21:02.551Z,2.57
2024-03-05T16:23:34.579Z,2.23
2024-03-05T16:26:06.500Z,2.53
2024-03-05T16:28:39.415Z,2.17
2024-03-05T16:31:14.362Z,2.20
2024-03-05T16:33:46.407Z,2.80
2024-03-05T16:36:18.580Z,2.33
2024-03-05T16:38:50.254Z,2.50
2024-03-05T16:41:22.176Z,1.90
2024-03-05T16:43:55.081Z,2.70
2024-03-05T16:46:26.887Z,2.27
2024-03-05T16:49:00.411Z,2.40
2024-03-05T16:51:32.112Z,2.60
2024-03-05T16:54:03.906Z,2.10
2024-03-05T16:56:35.592Z,1.90
2024-03-05T16:59:08.655Z,2.30
2024-03-05T17:01:40.454Z,2.10
2024-03-05T17:04:15.609Z,3.03
2024-03-05T17:06:47.402Z,1.80
2024-03-05T17:09:19.078Z,2.87
2024-03-05T17:11:51.858Z,11.10
2024-03-05T17:14:25.534Z,12.07
2024-03-05T17:16:58.576Z,4.70
2024-03-05T17:19:30.426Z,3.80
2024-03-05T17:22:04.573Z,4.70
2024-03-05T17:24:36.550Z,2.90
2024-03-05T17:27:08.225Z,3.90
2024-03-05T17:29:40.967Z,3.20
2024-03-05T17:32:12.769Z,2.70
2024-03-05T17:34:44.627Z,3.60
2024-03-05T17:37:16.362Z,4.50
2024-03-05T17:39:49.215Z,4.80
2024-03-05T17:42:21.134Z,3.70
2024-03-05T17:44:52.857Z,5.30
2024-03-05T17:47:24.723Z,6.40
2024-03-05T17:49:57.195Z,5.83
2024-03-05T17:52:29.069Z,2.87
2024-03-05T17:55:06.848Z,2.90
2024-03-05T17:57:43.649Z,4.00
2024-03-05T18:00:22.997Z,2.83
2024-03-05T18:02:56.597Z,2.80
2024-03-05T18:05:29.197Z,2.87
2024-03-05T18:08:01.694Z,3.07
2024-03-05T18:10:35.707Z,3.60
2024-03-05T18:13:08.209Z,4.60
2024-03-05T18:15:40.286Z,3.43
2024-03-05T18:18:15.281Z,4.03
2024-03-05T18:20:47.645Z,3.17
2024-03-05T18:23:19.463Z,2.70
2024-03-05T18:25:51.266Z,2.80
2024-03-05T18:28:23.709Z,3.30
2024-03-05T18:30:55.587Z,2.67
2024-03-05T18:33:27.394Z,3.27
2024-03-05T18:36:00.150Z,3.03
2024-03-05T18:38:32.109Z,2.60
2024-03-05T18:41:04.174Z,3.40
2024-03-05T18:43:35.907Z,2.50
2024-03-05T18:46:07.673Z,3.60
2024-03-05T18:48:40.101Z,2.60
2024-03-05T18:51:11.899Z,2.50
2024-03-05T18:53:49.226Z,3.10
2024-03-05T18:56:21.822Z,2.87
2024-03-05T18:58:55.821Z,2.70
2024-03-05T19:01:29.327Z,2.77
2024-03-05T19:04:05.446Z,3.00
2024-03-05T19:06:40.500Z,3.33
2024-03-05T19:09:12.507Z,3.57
2024-03-05T19:11:44.747Z,3.00
2024-03-05T19:14:18.556Z,3.43
2024-03-05T19:16:50.613Z,3.67
2024-03-05T19:19:22.915Z,2.70
2024-03-05T19:21:56.581Z,3.50
2024-03-05T19:24:29.957Z,3.23
2024-03-05T19:27:01.843Z,3.10
2024-03-05T19:29:33.636Z,4.10
2024-03-05T19:32:06.229Z,3.75
2024-03-05T19:34:38.090Z,3.90
2024-03-05T19:37:11.051Z,3.97
2024-03-05T19:39:42.959Z,3.20
2024-03-05T19:42:14.636Z,3.80
2024-03-05T19:44:47.253Z,4.40
2024-03-05T19:47:18.918Z,3.80
2024-03-05T19:49:50.656Z,3.87
2024-03-05T19:52:23.604Z,4.20
2024-03-05T19:54:55.311Z,4.27
2024-03-05T19:57:27.043Z,4.77
2024-03-05T20:00:02.428Z,4.33
2024-03-05T20:02:38.238Z,4.20
2024-03-05T20:05:10.052Z,3.60
2024-03-05T20:07:42.348Z,3.40
2024-03-05T20:10:15.361Z,3.87
2024-03-05T20:12:47.918Z,4.83
2024-03-05T20:15:20.586Z,3.38
2024-03-05T20:17:54.014Z,3.53
2024-03-05T20:20:25.832Z,3.40
2024-03-05T20:22:57.748Z,4.20
2024-03-05T20:25:29.449Z,3.00
2024-03-05T20:28:04.103Z,3.63
2024-03-05T20:30:36.054Z,3.43
2024-03-05T20:33:07.786Z,3.13
2024-03-05T20:35:40.593Z,3.30
2024-03-05T20:38:12.846Z,3.33
2024-03-05T20:40:44.789Z,3.50
2024-03-05T20:43:16.778Z,2.80
2024-03-05T20:45:48.466Z,3.50
2024-03-05T20:48:20.340Z,3.20
2024-03-05T20:50:52.218Z,3.20
2024-03-05T20:53:23.969Z,3.90
2024-03-05T20:55:55.733Z,3.97
2024-03-05T20:58:27.484Z,3.53
2024-03-05T21:00:59.518Z,4.23
2024-03-05T21:03:32.491Z,3.00
2024-03-05T21:06:04.597Z,3.10
2024-03-05T21:08:36.569Z,3.60
2024-03-05T21:11:08.506Z,3.30
2024-03-05T21:13:43.443Z,4.10
2024-03-05T21:16:15.369Z,3.27
2024-03-05T21:18:47.488Z,3.00
2024-03-05T21:21:19.324Z,3.30
2024-03-05T21:23:51.020Z,4.27
2024-03-05T21:26:35.510Z,3.50
2024-03-05T21:29:14.499Z,3.73
2024-03-05T21:31:47.971Z,3.77
2024-03-05T21:34:19.825Z,4.07
2024-03-05T21:36:51.645Z,4.93
2024-03-05T21:39:24.078Z,4.90
2024-03-05T21:41:56.274Z,5.13
2024-03-05T21:44:35.040Z,4.87
2024-03-05T21:47:13.636Z,4.57
2024-03-05T21:49:45.416Z,4.70
2024-03-05T21:52:17.363Z,4.90
2024-03-05T21:54:49.079Z,5.70
2024-03-05T21:57:20.861Z,4.80
2024-03-05T21:59:52.708Z,4.70
2024-03-05T22:02:24.552Z,6.07
2024-03-05T22:04:56.587Z,4.47
2024-03-05T22:07:29.553Z,4.67
2024-03-05T22:10:06.831Z,3.47
2024-03-05T22:12:38.723Z,5.33
2024-03-05T22:15:11.014Z,3.33
2024-03-05T22:17:42.968Z,3.73
2024-03-05T22:20:15.707Z,4.10
2024-03-05T22:22:47.579Z,3.13
2024-03-05T22:25:19.425Z,3.97
2024-03-05T22:27:51.884Z,3.30
2024-03-05T22:30:23.716Z,2.80
2024-03-05T22:32:56.532Z,3.90
2024-03-05T22:35:28.349Z,3.03
2024-03-05T22:38:00.143Z,3.90
2024-03-05T22:40:31.916Z,3.83
2024-03-05T22:43:03.711Z,3.43
2024-03-05T22:45:35.416Z,3.23
2024-03-05T22:48:07.686Z,4.40
2024-03-05T22:50:39.424Z,4.07
2024-03-05T22:53:11.199Z,3.50
2024-03-05T22:55:42.964Z,4.20
2024-03-05T22:58:15.136Z,3.80
2024-03-05T23:00:51.725Z,4.35
2024-03-05T23:03:23.781Z,4.50
2024-03-05T23:05:55.918Z,3.77
2024-03-05T23:08:27.829Z,3.57
2024-03-05T23:10:59.653Z,3.90
2024-03-05T23:13:31.949Z,3.20
2024-03-05T23:16:03.840Z,4.30
2024-03-05T23:18:35.565Z,3.50
2024-03-05T23:21:10.707Z,3.33
2024-03-05T23:23:45.381Z,3.57
2024-03-05T23:26:17.184Z,3.77
2024-03-05T23:28:49.416Z,3.53
2024-03-05T23:31:21.268Z,4.90
2024-03-05T23:33:52.952Z,4.15
2024-03-05T23:36:24.690Z,4.50
2024-03-05T23:38:56.393Z,3.93
2024-03-05T23:41:32.005Z,3.40
2024-03-05T23:44:04.303Z,4.00
2024-03-05T23:46:36.943Z,3.67
2024-03-05T23:49:08.726Z,3.40
2024-03-05T23:51:44.816Z,3.30
2024-03-05T23:54:16.569Z,3.03
2024-03-05T23:56:48.287Z,3.53
2024-03-05T23:59:20.006Z,4.20
